createdAt,value
2019-04-10T00:00:23.097Z,99.90
2019-04-10T00:02:44.516Z,99.90
2019-04-10T00:05:05.967Z,99.90
2019-04-10T00:07:27.366Z,99.90
2019-04-10T00:09:49.549Z,99.90
2019-04-10T00:12:11.635Z,99.90
2019-04-10T00:14:33.084Z,99.90
2019-04-10T00:16:54.372Z,99.90
2019-04-10T00:19:26.776Z,99.90
2019-04-10T00:21:49.352Z,99.90
2019-04-10T00:24:11.494Z,99.90
2019-04-10T00:26:32.777Z,99.90
2019-04-10T00:28:56.028Z,99.90
2019-04-10T00:31:17.908Z,99.90
2019-04-10T00:33:39.522Z,99.90
2019-04-10T00:36:01.615Z,99.90
2019-04-10T00:38:24.059Z,99.90
2019-04-10T00:40:45.804Z,99.90
2019-04-10T00:43:07.314Z,99.90
2019-04-10T00:45:29.827Z,99.50
2019-04-10T00:47:51.165Z,98.30
2019-04-10T00:50:12.637Z,98.00
2019-04-10T00:52:34.491Z,97.10
2019-04-10T00:54:57.403Z,97.00
2019-04-10T00:57:18.718Z,96.60
2019-04-10T00:59:40.231Z,96.50
2019-04-10T01:02:02.451Z,96.60
2019-04-10T01:04:24.542Z,96.80
2019-04-10T01:06:46.306Z,96.30
2019-04-10T01:09:09.771Z,95.70
2019-04-10T01:11:31.079Z,95.30
2019-04-10T01:13:52.277Z,95.20
2019-04-10T01:16:13.482Z,95.40
2019-04-10T01:18:35.158Z,94.80
2019-04-10T01:20:56.414Z,94.90
2019-04-10T01:23:17.610Z,94.90
2019-04-10T01:25:38.817Z,94.90
2019-04-10T01:28:00.542Z,95.00
2019-04-10T01:30:22.255Z,95.20
2019-04-10T01:32:43.959Z,94.90
2019-04-10T01:35:05.831Z,94.90
2019-04-10T01:37:27.179Z,94.90
2019-04-10T01:39:48.619Z,95.00
2019-04-10T01:42:10.077Z,95.10
2019-04-10T01:44:31.276Z,95.20
2019-04-10T01:46:52.938Z,95.00
2019-04-10T01:49:15.571Z,95.10
2019-04-10T01:51:37.335Z,95.10
2019-04-10T01:54:11.614Z,95.30
2019-04-10T01:56:35.143Z,95.20
2019-04-10T01:58:55.940Z,95.30
2019-04-10T02:03:58.478Z,94.90
2019-04-10T02:06:21.006Z,95.10
2019-04-10T02:08:42.368Z,94.90
2019-04-10T02:11:04.834Z,95.00
2019-04-10T02:13:26.260Z,94.90
2019-04-10T02:15:47.461Z,94.70
2019-04-10T02:18:08.856Z,94.50
2019-04-10T02:20:31.119Z,94.60
2019-04-10T02:22:52.658Z,94.70
2019-04-10T02:25:14.077Z,94.90
2019-04-10T02:27:35.375Z,94.60
2019-04-10T02:29:56.586Z,94.50
2019-04-10T02:32:18.918Z,95.10
2019-04-10T02:34:41.582Z,94.60
2019-04-10T02:37:03.589Z,94.50
2019-04-10T02:39:32.359Z,94.30
2019-04-10T02:41:47.878Z,95.00
2019-04-10T02:44:10.218Z,95.10
2019-04-10T02:46:33.063Z,95.20
2019-04-10T02:48:55.661Z,94.60
2019-04-10T02:51:17.574Z,94.40
2019-04-10T02:53:39.350Z,94.90
2019-04-10T02:56:00.703Z,94.80
2019-04-10T02:58:22.298Z,95.00
2019-04-10T03:00:44.276Z,95.10
2019-04-10T03:03:05.745Z,95.00
2019-04-10T03:05:54.140Z,94.70
2019-04-10T03:08:16.979Z,95.10
2019-04-10T03:10:44.151Z,94.80
2019-04-10T03:13:02.723Z,94.90
2019-04-10T03:15:25.193Z,95.00
2019-04-10T03:17:46.701Z,95.10
2019-04-10T03:20:08.015Z,94.50
2019-04-10T03:22:29.264Z,95.10
2019-04-10T03:24:50.718Z,95.20
2019-04-10T03:27:12.328Z,95.30
2019-04-10T03:29:34.249Z,95.20
2019-04-10T03:31:57.596Z,95.10
2019-04-10T03:34:25.348Z,94.30
2019-04-10T03:36:46.106Z,94.50
2019-04-10T03:39:08.973Z,94.40
2019-04-10T03:41:33.070Z,94.40
2019-04-10T03:43:54.398Z,94.40
2019-04-10T03:46:15.597Z,94.60
2019-04-10T03:48:36.833Z,95.00
2019-04-10T03:50:58.715Z,94.60
2019-04-10T03:53:20.497Z,94.50
2019-04-10T03:55:41.781Z,94.50
2019-04-10T03:58:03.204Z,94.70
2019-04-10T04:00:24.410Z,94.70
2019-04-10T04:02:46.386Z,95.40
2019-04-10T04:05:08.610Z,95.70
2019-04-10T04:07:30.469Z,95.80
2019-04-10T04:09:51.873Z,95.90
2019-04-10T04:12:14.723Z,96.00
2019-04-10T04:14:36.728Z,96.40
2019-04-10T04:16:58.229Z,96.70
2019-04-10T04:19:19.442Z,97.00
2019-04-10T04:21:41.736Z,97.40
2019-04-10T04:24:03.601Z,98.00
2019-04-10T04:26:25.334Z,98.30
2019-04-10T04:28:46.676Z,98.40
2019-04-10T04:31:07.866Z,98.70
2019-04-10T04:33:30.441Z,99.00
2019-04-10T04:35:51.750Z,99.30
2019-04-10T04:38:13.430Z,99.40
2019-04-10T04:40:37.662Z,99.60
2019-04-10T04:43:00.164Z,99.60
2019-04-10T04:45:22.081Z,99.90
2019-04-10T04:47:43.372Z,99.90
2019-04-10T04:50:05.607Z,99.90
2019-04-10T04:52:27.910Z,99.90
2019-04-10T04:54:49.814Z,99.90
2019-04-10T04:57:11.316Z,99.90
2019-04-10T04:59:32.513Z,99.90
2019-04-10T05:01:53.733Z,99.90
2019-04-10T05:04:15.205Z,99.90
2019-04-10T05:06:36.651Z,99.90
2019-04-10T05:08:59.003Z,99.90
2019-04-10T05:11:20.554Z,99.90
2019-04-10T05:13:42.434Z,99.90
2019-04-10T05:16:03.987Z,99.90
2019-04-10T05:18:25.401Z,99.90
2019-04-10T05:20:52.711Z,99.90
2019-04-10T05:23:13.973Z,99.90
2019-04-10T05:25:36.010Z,99.90
2019-04-10T05:27:59.352Z,99.90
2019-04-10T05:30:20.796Z,99.90
2019-04-10T05:32:42.313Z,99.90
2019-04-10T05:35:08.111Z,99.90
2019-04-10T05:37:29.686Z,99.90
2019-04-10T05:39:52.605Z,99.90
2019-04-10T05:42:14.766Z,99.90
2019-04-10T05:44:36.363Z,99.90
2019-04-10T05:46:57.989Z,99.90
2019-04-10T05:49:20.536Z,99.90
2019-04-10T05:52:04.269Z,99.90
2019-04-10T05:54:26.861Z,99.90
2019-04-10T05:56:48.889Z,99.90
2019-04-10T05:59:10.862Z,99.90
2019-04-10T06:01:37.283Z,99.90
2019-04-10T06:03:56.773Z,99.90
2019-04-10T06:06:18.305Z,99.90
2019-04-10T06:08:39.780Z,99.90
2019-04-10T06:11:01.266Z,99.90
2019-04-10T06:13:22.806Z,99.90
2019-04-10T06:15:45.351Z,99.90
2019-04-10T06:18:07.062Z,99.90
2019-04-10T06:20:29.273Z,99.90
2019-04-10T06:22:51.098Z,99.90
2019-04-10T06:25:13.952Z,99.90
2019-04-10T06:27:36.743Z,99.90
2019-04-10T06:29:59.356Z,99.90
2019-04-10T06:32:21.331Z,99.90
2019-04-10T06:34:43.135Z,99.90
2019-04-10T06:37:04.462Z,99.90
2019-04-10T06:39:26.812Z,99.90
2019-04-10T06:41:48.763Z,99.90
2019-04-10T06:44:10.069Z,99.50
2019-04-10T06:46:31.281Z,99.10
2019-04-10T06:48:52.492Z,99.20
2019-04-10T06:51:13.734Z,98.90
2019-04-10T06:53:35.285Z,98.70
2019-04-10T06:55:56.606Z,98.20
2019-04-10T06:58:18.124Z,97.70
2019-04-10T07:00:39.336Z,97.00
2019-04-10T07:03:01.421Z,97.00
2019-04-10T07:05:36.606Z,96.80
2019-04-10T07:07:53.827Z,96.10
2019-04-10T07:10:24.820Z,95.50
2019-04-10T07:12:35.569Z,94.90
2019-04-10T07:14:58.286Z,94.80
2019-04-10T07:17:20.304Z,94.50
2019-04-10T07:19:44.030Z,93.90
2019-04-10T07:22:08.849Z,93.70
2019-04-10T07:24:28.968Z,93.00
2019-04-10T07:26:51.013Z,92.40
2019-04-10T07:29:16.453Z,91.80
2019-04-10T07:31:37.801Z,91.60
2019-04-10T07:33:59.871Z,91.20
2019-04-10T07:36:21.549Z,90.10
2019-04-10T07:38:43.355Z,89.00
2019-04-10T07:41:11.206Z,87.30
2019-04-10T07:43:29.512Z,89.00
2019-04-10T07:45:51.363Z,89.20
2019-04-10T07:48:12.901Z,87.90
2019-04-10T07:50:34.837Z,87.70
2019-04-10T07:52:57.594Z,86.40
2019-04-10T07:55:19.116Z,86.80
2019-04-10T07:57:40.885Z,84.60
2019-04-10T08:00:08.899Z,83.70
2019-04-10T08:02:31.517Z,83.00
2019-04-10T08:04:55.936Z,82.60
2019-04-10T08:07:26.689Z,81.20
2019-04-10T08:09:40.484Z,82.60
2019-04-10T08:12:01.701Z,82.30
2019-04-10T08:14:25.319Z,82.00
2019-04-10T08:16:47.609Z,80.70
2019-04-10T08:19:08.918Z,79.80
2019-04-10T08:21:31.585Z,79.50
2019-04-10T08:23:53.111Z,78.00
2019-04-10T08:26:14.331Z,79.00
2019-04-10T08:28:35.639Z,77.60
2019-04-10T08:30:57.570Z,77.60
2019-04-10T08:33:19.548Z,78.20
2019-04-10T08:35:41.703Z,77.30
2019-04-10T08:38:03.455Z,79.10
2019-04-10T08:40:24.719Z,78.30
2019-04-10T08:42:47.355Z,78.50
2019-04-10T08:45:09.556Z,78.60
2019-04-10T08:47:31.351Z,77.10
2019-04-10T08:49:52.904Z,77.60
2019-04-10T08:52:14.883Z,77.70
2019-04-10T08:54:36.403Z,77.60
2019-04-10T08:56:57.958Z,78.50
2019-04-10T08:59:19.360Z,77.10
2019-04-10T09:01:41.754Z,75.90
2019-04-10T09:04:03.636Z,75.40
2019-04-10T09:06:25.266Z,76.00
2019-04-10T09:08:48.863Z,75.90
2019-04-10T09:11:09.808Z,76.30
2019-04-10T09:13:35.279Z,75.90
2019-04-10T09:16:02.434Z,74.30
2019-04-10T09:18:28.031Z,73.70
2019-04-10T09:20:49.396Z,72.60
2019-04-10T09:23:23.531Z,72.50
2019-04-10T09:25:35.273Z,71.10
2019-04-10T09:27:56.651Z,72.50
2019-04-10T09:30:18.997Z,70.80
2019-04-10T09:32:40.278Z,71.30
2019-04-10T09:35:02.607Z,72.80
2019-04-10T09:37:24.207Z,70.80
2019-04-10T09:39:45.497Z,70.00
2019-04-10T09:42:06.853Z,69.20
2019-04-10T09:44:28.161Z,68.90
2019-04-10T09:46:49.606Z,68.20
2019-04-10T09:49:12.296Z,66.90
2019-04-10T09:51:34.162Z,67.90
2019-04-10T09:53:55.598Z,67.50
2019-04-10T09:56:17.321Z,67.50
2019-04-10T09:58:38.811Z,69.30
2019-04-10T10:01:01.571Z,68.10
2019-04-10T10:03:24.168Z,67.50
2019-04-10T10:05:46.632Z,68.30
2019-04-10T10:08:09.067Z,67.80
2019-04-10T10:10:32.898Z,68.50
2019-04-10T10:12:53.792Z,66.90
2019-04-10T10:15:16.854Z,68.50
2019-04-10T10:17:39.270Z,67.10
2019-04-10T10:20:01.789Z,67.00
2019-04-10T10:22:23.444Z,66.50
2019-04-10T10:24:44.754Z,66.70
2019-04-10T10:27:05.951Z,67.60
2019-04-10T10:29:28.063Z,67.30
2019-04-10T10:31:51.232Z,68.40
2019-04-10T10:34:12.838Z,69.50
2019-04-10T10:36:41.306Z,68.50
2019-04-10T10:39:12.681Z,68.80
2019-04-10T10:41:34.296Z,67.60
2019-04-10T10:43:56.429Z,68.50
2019-04-10T10:46:17.938Z,68.10
2019-04-10T10:48:44.160Z,67.50
2019-04-10T10:51:08.671Z,67.00
2019-04-10T10:53:30.900Z,66.50
2019-04-10T10:55:52.121Z,66.40
2019-04-10T10:58:13.363Z,64.30
2019-04-10T11:00:35.554Z,65.20
2019-04-10T11:02:58.051Z,64.80
2019-04-10T11:05:19.522Z,64.60
2019-04-10T11:07:40.744Z,64.20
2019-04-10T11:10:04.175Z,65.00
2019-04-10T11:12:26.548Z,64.10
2019-04-10T11:14:48.248Z,64.20
2019-04-10T11:17:09.467Z,63.50
2019-04-10T11:19:31.224Z,63.60
2019-04-10T11:21:52.670Z,64.00
2019-04-10T11:24:14.971Z,64.30
2019-04-10T11:26:37.579Z,63.90
2019-04-10T11:28:59.159Z,63.90
2019-04-10T11:31:21.136Z,63.90
2019-04-10T11:33:43.864Z,64.50
2019-04-10T11:36:06.442Z,63.50
2019-04-10T11:38:29.053Z,64.00
2019-04-10T11:40:52.215Z,64.60
2019-04-10T11:43:13.631Z,64.20
2019-04-10T11:45:41.903Z,64.30
2019-04-10T11:48:01.564Z,63.80
2019-04-10T11:50:24.666Z,63.60
2019-04-10T11:52:52.213Z,64.20
2019-04-10T11:55:20.287Z,64.50
2019-04-10T11:57:37.315Z,64.60
2019-04-10T12:00:02.230Z,63.30
2019-04-10T12:02:25.072Z,62.90
2019-04-10T12:04:53.780Z,64.00
2019-04-10T12:07:09.758Z,64.00
2019-04-10T12:11:55.293Z,62.30
2019-04-10T12:14:16.862Z,63.20
2019-04-10T12:16:38.993Z,62.90
2019-04-10T12:19:00.648Z,59.60
2019-04-10T12:21:21.884Z,59.00
2019-04-10T12:23:43.173Z,58.10
2019-04-10T12:26:04.924Z,57.40
2019-04-10T12:28:26.165Z,57.10
2019-04-10T12:30:47.759Z,56.40
2019-04-10T12:33:09.546Z,56.60
2019-04-10T12:35:31.932Z,56.60
2019-04-10T12:38:02.287Z,56.40
2019-04-10T12:40:17.351Z,56.40
2019-04-10T12:42:38.784Z,56.90
2019-04-10T12:45:00.127Z,56.60
2019-04-10T12:47:21.757Z,56.50
2019-04-10T12:49:43.575Z,58.60
2019-04-10T12:52:05.964Z,62.20
2019-04-10T12:54:28.016Z,63.80
2019-04-10T12:56:50.501Z,64.80
2019-04-10T12:59:12.197Z,65.40
2019-04-10T13:01:33.427Z,64.40
2019-04-10T13:03:55.690Z,65.60
2019-04-10T13:06:17.944Z,62.50
2019-04-10T13:08:54.379Z,62.80
2019-04-10T13:11:02.570Z,62.50
2019-04-10T13:13:24.271Z,62.30
2019-04-10T13:15:45.836Z,61.50
2019-04-10T13:18:07.956Z,61.50
2019-04-10T13:20:29.545Z,61.80
2019-04-10T13:22:50.827Z,62.50
2019-04-10T13:25:12.532Z,63.50
2019-04-10T13:27:34.773Z,62.80
2019-04-10T13:29:56.357Z,62.10
2019-04-10T13:32:18.284Z,61.80
2019-04-10T13:34:39.741Z,62.00
2019-04-10T13:37:01.994Z,61.70
2019-04-10T13:39:24.450Z,60.10
2019-04-10T13:41:46.060Z,59.30
2019-04-10T13:44:07.256Z,59.40
2019-04-10T13:46:28.944Z,59.40
2019-04-10T13:48:50.336Z,60.10
2019-04-10T13:51:13.011Z,60.50
2019-04-10T13:53:34.587Z,58.30
2019-04-10T13:55:56.796Z,58.20
2019-04-10T13:58:19.244Z,57.40
2019-04-10T14:00:42.946Z,57.00
2019-04-10T14:03:05.869Z,56.50
2019-04-10T14:05:27.635Z,57.30
2019-04-10T14:07:49.311Z,56.90
2019-04-10T14:10:12.572Z,57.00
2019-04-10T14:12:35.339Z,56.70
2019-04-10T14:14:57.808Z,56.40
2019-04-10T14:17:19.506Z,55.80
2019-04-10T14:19:41.528Z,55.70
2019-04-10T14:22:03.058Z,55.60
2019-04-10T14:24:24.951Z,55.80
2019-04-10T14:27:05.795Z,55.40
2019-04-10T14:29:27.603Z,55.80
2019-04-10T14:31:56.644Z,54.80
2019-04-10T14:34:18.858Z,55.30
2019-04-10T14:36:42.205Z,56.40
2019-04-10T14:39:13.572Z,56.30
2019-04-10T14:41:30.901Z,55.60
2019-04-10T14:43:52.096Z,55.70
2019-04-10T14:46:14.389Z,55.80
2019-04-10T14:48:36.180Z,55.60
2019-04-10T14:50:57.664Z,55.90
2019-04-10T14:53:19.496Z,56.20
2019-04-10T14:55:41.757Z,56.20
2019-04-10T14:58:03.598Z,55.40
2019-04-10T15:00:41.946Z,55.50
2019-04-10T15:03:04.339Z,55.10
2019-04-10T15:05:25.939Z,55.50
2019-04-10T15:07:47.382Z,55.10
2019-04-10T15:10:09.792Z,55.20
2019-04-10T15:12:32.199Z,55.40
2019-04-10T15:14:54.627Z,56.00
2019-04-10T15:17:16.796Z,55.90
2019-04-10T15:19:38.236Z,55.40
2019-04-10T15:21:59.535Z,54.70
2019-04-10T15:24:22.010Z,55.00
2019-04-10T15:26:43.322Z,55.40
2019-04-10T15:29:05.759Z,54.70
2019-04-10T15:31:28.688Z,55.30
2019-04-10T15:33:50.409Z,54.10
2019-04-10T15:36:11.654Z,54.00
2019-04-10T15:38:33.919Z,54.10
2019-04-10T15:40:55.383Z,54.90
2019-04-10T15:43:16.845Z,54.50
2019-04-10T15:45:39.971Z,54.70
2019-04-10T15:48:01.764Z,54.70
2019-04-10T15:50:24.361Z,54.10
2019-04-10T15:52:45.863Z,54.10
2019-04-10T15:55:07.888Z,55.00
2019-04-10T15:57:37.007Z,54.50
2019-04-10T15:59:54.561Z,53.50
2019-04-10T16:02:16.433Z,53.60
2019-04-10T16:04:38.078Z,53.20
2019-04-10T16:07:00.085Z,53.40
2019-04-10T16:09:23.409Z,53.70
2019-04-10T16:11:47.099Z,54.90
2019-04-10T16:14:18.399Z,54.40
2019-04-10T16:16:34.949Z,54.10
2019-04-10T16:18:59.217Z,54.50
2019-04-10T16:21:20.654Z,54.80
2019-04-10T16:23:44.255Z,55.10
2019-04-10T16:26:07.062Z,55.40
2019-04-10T16:28:29.301Z,56.00
2019-04-10T16:30:50.925Z,57.30
2019-04-10T16:33:12.154Z,58.00
2019-04-10T16:35:35.451Z,58.80
2019-04-10T16:37:56.544Z,59.40
2019-04-10T16:40:18.525Z,60.30
2019-04-10T16:42:40.353Z,60.70
2019-04-10T16:45:05.907Z,60.80
2019-04-10T16:47:38.627Z,61.00
2019-04-10T16:50:00.071Z,60.80
2019-04-10T16:52:21.549Z,61.40
2019-04-10T16:54:43.037Z,62.10
2019-04-10T16:57:04.524Z,62.00
2019-04-10T16:59:25.933Z,62.50
2019-04-10T17:43:16.807Z,66.70
2019-04-10T17:45:38.692Z,67.00
2019-04-10T17:48:00.818Z,67.40
2019-04-10T17:54:00.082Z,68.00
2019-04-10T18:04:31.832Z,68.70
2019-04-10T18:06:53.922Z,68.80
2019-04-10T18:09:15.978Z,69.20
2019-04-10T18:11:37.528Z,69.60
2019-04-10T18:13:58.948Z,69.00
2019-04-10T18:16:20.199Z,70.30
2019-04-10T18:18:42.159Z,69.20
2019-04-10T18:21:04.466Z,69.60
2019-04-10T18:23:27.193Z,70.30
2019-04-10T18:25:49.998Z,70.40
2019-04-10T18:28:11.695Z,70.30
2019-04-10T18:30:34.578Z,70.00
2019-04-10T18:32:58.075Z,70.70
2019-04-10T18:35:20.864Z,72.50
2019-04-10T18:37:42.330Z,72.00
2019-04-10T18:40:05.571Z,72.10
2019-04-10T18:42:26.814Z,72.90
2019-04-10T18:44:49.054Z,73.70
2019-04-10T18:47:11.065Z,73.70
2019-04-10T18:49:33.684Z,75.40
2019-04-10T18:51:56.344Z,76.20
2019-04-10T18:54:18.861Z,77.50
2019-04-10T18:56:40.966Z,78.20
2019-04-10T18:59:04.710Z,78.40
2019-04-10T19:01:31.390Z,78.80
2019-04-10T19:04:02.375Z,79.30
2019-04-10T19:06:24.713Z,78.90
2019-04-10T19:09:00.079Z,79.70
2019-04-10T19:11:20.021Z,79.60
2019-04-10T19:13:32.823Z,81.10
2019-04-10T19:15:55.404Z,81.20
2019-04-10T19:18:16.936Z,82.20
2019-04-10T19:20:38.941Z,82.90
2019-04-10T19:23:01.384Z,83.10
2019-04-10T19:25:23.557Z,83.70
2019-04-10T19:27:45.144Z,83.40
2019-04-10T19:30:10.752Z,83.60
2019-04-10T19:32:35.422Z,83.40
2019-04-10T19:34:57.016Z,84.20
2019-04-10T19:37:18.566Z,83.90
2019-04-10T19:39:40.475Z,83.90
2019-04-10T19:42:03.217Z,84.30
2019-04-10T19:44:24.431Z,84.70
2019-04-10T19:46:48.021Z,85.50
2019-04-10T19:49:10.196Z,86.10
2019-04-10T19:51:32.215Z,86.00
2019-04-10T19:53:53.715Z,84.10
2019-04-10T19:56:16.014Z,80.70
2019-04-10T19:58:38.528Z,77.50
2019-04-10T20:01:01.096Z,76.20
2019-04-10T20:03:23.740Z,75.90
2019-04-10T20:05:46.182Z,75.10
2019-04-10T20:08:07.643Z,74.30
2019-04-10T20:10:29.705Z,73.90
2019-04-10T20:12:51.663Z,73.20
2019-04-10T20:15:14.115Z,72.80
2019-04-10T20:17:35.830Z,72.20
2019-04-10T20:19:58.313Z,71.40
2019-04-10T20:22:20.912Z,71.20
2019-04-10T20:24:43.125Z,71.50
2019-04-10T20:27:04.527Z,70.30
2019-04-10T20:29:26.711Z,70.50
2019-04-10T20:31:49.879Z,70.90
2019-04-10T20:34:11.567Z,70.90
2019-04-10T20:36:33.331Z,70.70
2019-04-10T20:38:54.707Z,69.90
2019-04-10T20:41:18.225Z,69.60
2019-04-10T20:43:41.208Z,69.80
2019-04-10T20:46:03.853Z,68.80
2019-04-10T20:48:27.211Z,68.90
2019-04-10T20:50:48.534Z,68.50
2019-04-10T20:53:09.870Z,68.20
2019-04-10T20:55:31.677Z,68.40
2019-04-10T20:57:56.301Z,67.90
2019-04-10T21:00:34.289Z,67.90
2019-04-10T21:02:56.125Z,67.50
2019-04-10T21:05:18.104Z,67.60
2019-04-10T21:07:39.742Z,67.20
2019-04-10T21:10:08.543Z,67.70
2019-04-10T21:12:30.186Z,67.30
2019-04-10T21:14:52.527Z,67.60
2019-04-10T21:17:14.339Z,67.60
2019-04-10T21:19:35.868Z,69.80
2019-04-10T21:21:57.529Z,69.30
2019-04-10T21:24:19.118Z,69.60
2019-04-10T21:26:40.986Z,69.60
2019-04-10T21:29:04.463Z,69.90
2019-04-10T21:31:27.825Z,70.10
2019-04-10T21:34:08.156Z,70.70
2019-04-10T21:36:29.681Z,70.90
2019-04-10T21:38:51.098Z,71.30
2019-04-10T21:41:13.839Z,71.70
2019-04-10T21:43:36.686Z,72.20
2019-04-10T21:45:59.491Z,72.80
2019-04-10T21:48:22.390Z,73.40
2019-04-10T21:50:44.065Z,74.20
2019-04-10T21:53:06.095Z,74.10
2019-04-10T21:55:41.678Z,75.00
2019-04-10T21:58:03.835Z,75.60
2019-04-10T22:00:44.858Z,77.30
2019-04-10T22:03:09.101Z,77.90
2019-04-10T22:05:33.007Z,77.60
2019-04-10T22:07:56.665Z,77.80
2019-04-10T22:10:23.894Z,77.70
2019-04-10T22:12:48.372Z,78.10
2019-04-10T22:15:14.890Z,78.40
2019-04-10T22:17:38.356Z,78.20
2019-04-10T22:20:01.215Z,78.40
2019-04-10T22:22:22.742Z,78.60
2019-04-10T22:24:43.953Z,78.50
2019-04-10T22:27:07.075Z,78.50
2019-04-10T22:29:28.461Z,77.30
2019-04-10T22:31:49.672Z,74.90
2019-04-10T22:34:11.747Z,74.30
2019-04-10T22:36:35.364Z,74.50
2019-04-10T22:38:56.722Z,72.60
2019-04-10T22:41:25.372Z,71.30
2019-04-10T22:43:41.232Z,70.40
2019-04-10T22:46:02.958Z,69.40
2019-04-10T22:48:25.137Z,68.20
2019-04-10T22:50:47.224Z,67.90
2019-04-10T22:53:09.282Z,67.40
2019-04-10T22:55:31.638Z,67.10
2019-04-10T22:57:53.187Z,66.40
2019-04-10T23:00:18.093Z,65.90
2019-04-10T23:02:41.440Z,64.70
2019-04-10T23:05:04.033Z,65.10
2019-04-10T23:07:26.070Z,64.00
2019-04-10T23:09:48.581Z,64.20
2019-04-10T23:12:10.170Z,64.40
2019-04-10T23:14:31.372Z,64.20
2019-04-10T23:16:52.670Z,64.20
2019-04-10T23:19:14.121Z,64.50
2019-04-10T23:21:36.525Z,64.50
2019-04-10T23:23:59.033Z,64.70
2019-04-10T23:26:20.868Z,64.70
2019-04-10T23:28:42.208Z,65.10
2019-04-10T23:31:03.669Z,65.50
2019-04-10T23:33:26.047Z,65.60
2019-04-10T23:35:47.697Z,65.40
2019-04-10T23:38:09.158Z,65.30
2019-04-10T23:40:30.537Z,65.10
2019-04-10T23:43:03.828Z,65.50
2019-04-10T23:45:15.550Z,66.10
2019-04-10T23:47:37.120Z,66.40
2019-04-10T23:49:58.378Z,66.80
2019-04-10T23:52:20.871Z,67.30
2019-04-10T23:54:42.097Z,66.40
2019-04-10T23:57:03.441Z,66.30
2019-04-10T23:59:24.746Z,66.10
